EGKB/BQH METAR and TAF weather

Enter ICAO airport designator
Station Type Date Time Source
EGKB METAR 2018/07/20 21:20 UTC NOAA

EGKB 202120Z 19006KT CAVOK 16/14 Q1014


Station Type Date Time Source
EGKB Decoded METAR 2018/07/20 21:20 UTC NOAA

Biggin Hill , United Kingdom (EGKB) 51-19N 000-02E
Jul 20, 2018 - 05:20 PM EDT / 2018.07.20 2120 UTC
Wind: from the S (190 degrees) at 7 MPH (6 KT):0
Visibility: greater than 7 mile(s):0
Temperature: 60 F (16 C)
Dew Point: 57 F (14 C)
Relative Humidity: 87%
Pressure (altimeter): 29.94 in. Hg (1014 hPa)
ob: EGKB 202120Z 19006KT CAVOK 16/14 Q1014
cycle: 21

Station Type Date Time Source
EGKB TAF 2016/04/18 18:00 UTC NOAA

TAF EGKB 181658Z 1818/1820 26007KT 9999 BKN035


Example: see airport list